sensor_id;sensor_type;location;lat;lon;timestamp;P1;durP1;ratioP1;P2;durP2;ratioP2
74102;SDS011;62853;46.166;3.640;2022-10-16T00:00:36;5.40;;;3.40;;
74102;SDS011;62853;46.166;3.640;2022-10-16T00:03:03;7.03;;;3.70;;
74102;SDS011;62853;46.166;3.640;2022-10-16T00:05:29;7.38;;;4.00;;
74102;SDS011;62853;46.166;3.640;2022-10-16T00:07:55;6.35;;;3.55;;
74102;SDS011;62853;46.166;3.640;2022-10-16T00:10:21;7.20;;;3.67;;
74102;SDS011;62853;46.166;3.640;2022-10-16T00:12:46;6.43;;;3.53;;
74102;SDS011;62853;46.166;3.640;2022-10-16T00:15:12;4.53;;;3.17;;
74102;SDS011;62853;46.166;3.640;2022-10-16T00:17:38;5.60;;;3.30;;
74102;SDS011;62853;46.166;3.640;2022-10-16T00:20:03;8.25;;;4.13;;
74102;SDS011;62853;46.166;3.640;2022-10-16T00:22:29;6.45;;;3.60;;
74102;SDS011;62853;46.166;3.640;2022-10-16T00:24:55;7.28;;;3.90;;
74102;SDS011;62853;46.166;3.640;2022-10-16T00:27:20;8.00;;;3.00;;
74102;SDS011;62853;46.166;3.640;2022-10-16T00:29:49;5.53;;;3.60;;
74102;SDS011;62853;46.166;3.640;2022-10-16T00:32:16;7.55;;;3.50;;
74102;SDS011;62853;46.166;3.640;2022-10-16T00:34:41;4.68;;;3.33;;
74102;SDS011;62853;46.166;3.640;2022-10-16T00:37:07;4.88;;;3.08;;
74102;SDS011;62853;46.166;3.640;2022-10-16T00:39:32;5.38;;;3.20;;
74102;SDS011;62853;46.166;3.640;2022-10-16T00:41:58;5.60;;;3.15;;
74102;SDS011;62853;46.166;3.640;2022-10-16T00:47:10;4.05;;;3.20;;
74102;SDS011;62853;46.166;3.640;2022-10-16T00:49:42;6.17;;;2.93;;
74102;SDS011;62853;46.166;3.640;2022-10-16T00:52:07;6.30;;;2.90;;
74102;SDS011;62853;46.166;3.640;2022-10-16T00:54:33;4.68;;;2.60;;
74102;SDS011;62853;46.166;3.640;2022-10-16T00:57:03;4.72;;;2.75;;
74102;SDS011;62853;46.166;3.640;2022-10-16T00:59:31;6.40;;;2.53;;
74102;SDS011;62853;46.166;3.640;2022-10-16T01:01:58;5.68;;;2.63;;
74102;SDS011;62853;46.166;3.640;2022-10-16T01:04:25;4.13;;;2.50;;
74102;SDS011;62853;46.166;3.640;2022-10-16T01:06:57;5.50;;;3.00;;
74102;SDS011;62853;46.166;3.640;2022-10-16T01:15:12;7.55;;;2.70;;
74102;SDS011;62853;46.166;3.640;2022-10-16T01:23:07;6.60;;;2.70;;
74102;SDS011;62853;46.166;3.640;2022-10-16T01:28:30;3.00;;;2.33;;
74102;SDS011;62853;46.166;3.640;2022-10-16T01:31:02;3.80;;;2.67;;
74102;SDS011;62853;46.166;3.640;2022-10-16T01:33:29;8.48;;;2.60;;
74102;SDS011;62853;46.166;3.640;2022-10-16T01:36:02;5.45;;;2.67;;
74102;SDS011;62853;46.166;3.640;2022-10-16T01:38:35;5.38;;;2.90;;
74102;SDS011;62853;46.166;3.640;2022-10-16T01:41:19;3.83;;;2.35;;
74102;SDS011;62853;46.166;3.640;2022-10-16T01:43:53;4.10;;;2.40;;
74102;SDS011;62853;46.166;3.640;2022-10-16T01:46:26;5.32;;;2.45;;
74102;SDS011;62853;46.166;3.640;2022-10-16T01:48:55;6.25;;;2.60;;
74102;SDS011;62853;46.166;3.640;2022-10-16T01:51:21;3.92;;;2.63;;
74102;SDS011;62853;46.166;3.640;2022-10-16T01:53:49;7.10;;;2.70;;
74102;SDS011;62853;46.166;3.640;2022-10-16T01:56:19;8.70;;;2.95;;
74102;SDS011;62853;46.166;3.640;2022-10-16T01:58:58;3.60;;;2.30;;
74102;SDS011;62853;46.166;3.640;2022-10-16T02:01:37;4.45;;;2.67;;
74102;SDS011;62853;46.166;3.640;2022-10-16T02:04:28;4.70;;;2.53;;
74102;SDS011;62853;46.166;3.640;2022-10-16T02:06:56;2.90;;;2.22;;
74102;SDS011;62853;46.166;3.640;2022-10-16T02:09:22;3.45;;;2.50;;
74102;SDS011;62853;46.166;3.640;2022-10-16T02:11:47;4.43;;;2.28;;
74102;SDS011;62853;46.166;3.640;2022-10-16T02:14:15;3.53;;;2.28;;
74102;SDS011;62853;46.166;3.640;2022-10-16T02:16:41;4.78;;;1.95;;
74102;SDS011;62853;46.166;3.640;2022-10-16T02:19:09;4.60;;;2.00;;
74102;SDS011;62853;46.166;3.640;2022-10-16T02:29:27;3.08;;;2.33;;
74102;SDS011;62853;46.166;3.640;2022-10-16T02:31:58;4.35;;;2.03;;
74102;SDS011;62853;46.166;3.640;2022-10-16T02:34:27;2.47;;;2.00;;
74102;SDS011;62853;46.166;3.640;2022-10-16T02:36:55;5.93;;;2.47;;
74102;SDS011;62853;46.166;3.640;2022-10-16T02:39:22;6.47;;;2.33;;
74102;SDS011;62853;46.166;3.640;2022-10-16T02:41:48;3.10;;;1.92;;
74102;SDS011;62853;46.166;3.640;2022-10-16T02:44:14;4.63;;;2.28;;
74102;SDS011;62853;46.166;3.640;2022-10-16T02:46:39;3.75;;;2.10;;
74102;SDS011;62853;46.166;3.640;2022-10-16T02:49:05;3.15;;;2.17;;
74102;SDS011;62853;46.166;3.640;2022-10-16T02:51:30;2.65;;;2.05;;
74102;SDS011;62853;46.166;3.640;2022-10-16T02:53:55;3.53;;;2.22;;
74102;SDS011;62853;46.166;3.640;2022-10-16T02:56:21;3.33;;;2.35;;
74102;SDS011;62853;46.166;3.640;2022-10-16T02:58:46;3.97;;;2.10;;
74102;SDS011;62853;46.166;3.640;2022-10-16T03:01:12;4.63;;;2.30;;
74102;SDS011;62853;46.166;3.640;2022-10-16T03:03:39;3.42;;;2.15;;
74102;SDS011;62853;46.166;3.640;2022-10-16T03:06:04;5.28;;;2.00;;
74102;SDS011;62853;46.166;3.640;2022-10-16T03:08:30;3.67;;;1.90;;
74102;SDS011;62853;46.166;3.640;2022-10-16T03:10:56;6.13;;;2.20;;
74102;SDS011;62853;46.166;3.640;2022-10-16T03:13:21;3.03;;;2.13;;
74102;SDS011;62853;46.166;3.640;2022-10-16T03:15:47;5.53;;;2.25;;
74102;SDS011;62853;46.166;3.640;2022-10-16T03:18:12;5.30;;;2.65;;
74102;SDS011;62853;46.166;3.640;2022-10-16T03:20:38;2.97;;;2.17;;
74102;SDS011;62853;46.166;3.640;2022-10-16T03:23:03;6.43;;;2.20;;
74102;SDS011;62853;46.166;3.640;2022-10-16T03:25:29;3.05;;;2.10;;
74102;SDS011;62853;46.166;3.640;2022-10-16T03:27:54;3.45;;;2.08;;
74102;SDS011;62853;46.166;3.640;2022-10-16T03:30:19;3.38;;;2.53;;
74102;SDS011;62853;46.166;3.640;2022-10-16T03:32:45;5.95;;;2.30;;
74102;SDS011;62853;46.166;3.640;2022-10-16T03:35:11;5.53;;;2.20;;
74102;SDS011;62853;46.166;3.640;2022-10-16T03:37:36;4.35;;;2.22;;
74102;SDS011;62853;46.166;3.640;2022-10-16T03:40:02;4.32;;;2.35;;
74102;SDS011;62853;46.166;3.640;2022-10-16T03:42:29;6.22;;;2.15;;
74102;SDS011;62853;46.166;3.640;2022-10-16T03:44:54;3.13;;;2.30;;
74102;SDS011;62853;46.166;3.640;2022-10-16T03:47:19;4.28;;;2.28;;
74102;SDS011;62853;46.166;3.640;2022-10-16T03:49:47;2.53;;;1.90;;
74102;SDS011;62853;46.166;3.640;2022-10-16T03:52:12;3.50;;;2.10;;
74102;SDS011;62853;46.166;3.640;2022-10-16T03:54:38;4.10;;;2.10;;
74102;SDS011;62853;46.166;3.640;2022-10-16T03:57:03;4.68;;;2.10;;
74102;SDS011;62853;46.166;3.640;2022-10-16T03:59:29;5.05;;;2.10;;
74102;SDS011;62853;46.166;3.640;2022-10-16T04:01:54;3.53;;;2.22;;
74102;SDS011;62853;46.166;3.640;2022-10-16T04:04:19;4.65;;;2.33;;
74102;SDS011;62853;46.166;3.640;2022-10-16T04:06:45;5.07;;;2.40;;
74102;SDS011;62853;46.166;3.640;2022-10-16T04:09:10;5.43;;;2.40;;
74102;SDS011;62853;46.166;3.640;2022-10-16T04:11:35;4.72;;;2.10;;
74102;SDS011;62853;46.166;3.640;2022-10-16T04:14:01;3.13;;;2.40;;
74102;SDS011;62853;46.166;3.640;2022-10-16T04:16:26;3.88;;;2.20;;
74102;SDS011;62853;46.166;3.640;2022-10-16T04:18:51;6.22;;;2.65;;
74102;SDS011;62853;46.166;3.640;2022-10-16T04:21:17;4.72;;;2.60;;
74102;SDS011;62853;46.166;3.640;2022-10-16T04:23:42;3.08;;;2.15;;
74102;SDS011;62853;46.166;3.640;2022-10-16T04:26:07;3.50;;;2.40;;
74102;SDS011;62853;46.166;3.640;2022-10-16T04:28:33;5.03;;;2.60;;
74102;SDS011;62853;46.166;3.640;2022-10-16T04:30:58;6.07;;;2.47;;
74102;SDS011;62853;46.166;3.640;2022-10-16T04:33:24;4.85;;;2.70;;
74102;SDS011;62853;46.166;3.640;2022-10-16T04:35:55;6.40;;;3.05;;
74102;SDS011;62853;46.166;3.640;2022-10-16T04:38:21;5.13;;;2.67;;
74102;SDS011;62853;46.166;3.640;2022-10-16T04:40:46;7.70;;;2.92;;
74102;SDS011;62853;46.166;3.640;2022-10-16T04:43:12;5.53;;;3.00;;
74102;SDS011;62853;46.166;3.640;2022-10-16T04:45:37;5.20;;;2.55;;
74102;SDS011;62853;46.166;3.640;2022-10-16T04:48:03;5.53;;;2.45;;
74102;SDS011;62853;46.166;3.640;2022-10-16T04:50:28;6.63;;;3.10;;
74102;SDS011;62853;46.166;3.640;2022-10-16T04:52:53;5.97;;;2.55;;
74102;SDS011;62853;46.166;3.640;2022-10-16T04:55:19;4.65;;;3.05;;
74102;SDS011;62853;46.166;3.640;2022-10-16T04:57:44;6.47;;;2.72;;
74102;SDS011;62853;46.166;3.640;2022-10-16T05:00:10;3.47;;;2.47;;
74102;SDS011;62853;46.166;3.640;2022-10-16T05:02:36;5.55;;;2.90;;
74102;SDS011;62853;46.166;3.640;2022-10-16T05:05:01;5.80;;;2.75;;
74102;SDS011;62853;46.166;3.640;2022-10-16T05:07:27;5.85;;;2.42;;
74102;SDS011;62853;46.166;3.640;2022-10-16T05:09:52;6.22;;;2.92;;
74102;SDS011;62853;46.166;3.640;2022-10-16T05:12:18;4.82;;;2.30;;
74102;SDS011;62853;46.166;3.640;2022-10-16T05:14:43;6.70;;;2.35;;
74102;SDS011;62853;46.166;3.640;2022-10-16T05:17:09;4.85;;;2.80;;
74102;SDS011;62853;46.166;3.640;2022-10-16T05:19:34;4.40;;;2.33;;
74102;SDS011;62853;46.166;3.640;2022-10-16T05:21:59;4.50;;;2.70;;
74102;SDS011;62853;46.166;3.640;2022-10-16T05:24:25;4.10;;;2.45;;
74102;SDS011;62853;46.166;3.640;2022-10-16T05:26:51;5.35;;;2.45;;
74102;SDS011;62853;46.166;3.640;2022-10-16T05:29:16;4.60;;;2.40;;
74102;SDS011;62853;46.166;3.640;2022-10-16T05:31:42;5.38;;;2.33;;
74102;SDS011;62853;46.166;3.640;2022-10-16T05:34:07;3.42;;;2.40;;
74102;SDS011;62853;46.166;3.640;2022-10-16T05:36:33;4.90;;;2.42;;
74102;SDS011;62853;46.166;3.640;2022-10-16T05:38:58;4.05;;;2.47;;
74102;SDS011;62853;46.166;3.640;2022-10-16T05:41:23;4.25;;;2.40;;
74102;SDS011;62853;46.166;3.640;2022-10-16T05:43:51;5.90;;;3.30;;
74102;SDS011;62853;46.166;3.640;2022-10-16T05:46:18;6.70;;;2.83;;
74102;SDS011;62853;46.166;3.640;2022-10-16T05:48:44;4.85;;;2.75;;
74102;SDS011;62853;46.166;3.640;2022-10-16T05:51:10;4.43;;;2.58;;
74102;SDS011;62853;46.166;3.640;2022-10-16T05:53:37;4.80;;;2.50;;
74102;SDS011;62853;46.166;3.640;2022-10-16T05:56:04;4.93;;;2.92;;
74102;SDS011;62853;46.166;3.640;2022-10-16T05:58:31;3.25;;;2.35;;
74102;SDS011;62853;46.166;3.640;2022-10-16T06:00:59;4.93;;;2.60;;
74102;SDS011;62853;46.166;3.640;2022-10-16T06:03:26;6.47;;;2.65;;
74102;SDS011;62853;46.166;3.640;2022-10-16T06:05:52;5.43;;;3.10;;
74102;SDS011;62853;46.166;3.640;2022-10-16T06:08:19;5.15;;;3.10;;
74102;SDS011;62853;46.166;3.640;2022-10-16T06:10:45;7.85;;;3.22;;
74102;SDS011;62853;46.166;3.640;2022-10-16T06:13:12;7.57;;;3.20;;
74102;SDS011;62853;46.166;3.640;2022-10-16T06:15:41;4.85;;;3.30;;
74102;SDS011;62853;46.166;3.640;2022-10-16T06:18:07;6.22;;;3.83;;
74102;SDS011;62853;46.166;3.640;2022-10-16T06:20:34;7.72;;;3.47;;
74102;SDS011;62853;46.166;3.640;2022-10-16T06:23:00;5.15;;;3.65;;
74102;SDS011;62853;46.166;3.640;2022-10-16T06:25:25;5.45;;;3.50;;
74102;SDS011;62853;46.166;3.640;2022-10-16T06:27:50;5.72;;;3.80;;
74102;SDS011;62853;46.166;3.640;2022-10-16T06:30:16;6.97;;;3.90;;
74102;SDS011;62853;46.166;3.640;2022-10-16T06:32:41;7.78;;;3.90;;
74102;SDS011;62853;46.166;3.640;2022-10-16T06:35:07;6.18;;;3.70;;
74102;SDS011;62853;46.166;3.640;2022-10-16T06:37:32;4.25;;;3.80;;
74102;SDS011;62853;46.166;3.640;2022-10-16T06:39:58;8.27;;;4.20;;
74102;SDS011;62853;46.166;3.640;2022-10-16T06:42:23;7.55;;;3.80;;
74102;SDS011;62853;46.166;3.640;2022-10-16T06:44:48;4.70;;;3.67;;
74102;SDS011;62853;46.166;3.640;2022-10-16T06:47:14;7.53;;;4.15;;
74102;SDS011;62853;46.166;3.640;2022-10-16T06:49:39;4.68;;;4.20;;
74102;SDS011;62853;46.166;3.640;2022-10-16T06:52:05;6.70;;;4.85;;
74102;SDS011;62853;46.166;3.640;2022-10-16T06:54:30;7.45;;;4.35;;
74102;SDS011;62853;46.166;3.640;2022-10-16T06:56:56;7.70;;;3.97;;
74102;SDS011;62853;46.166;3.640;2022-10-16T06:59:21;6.50;;;4.35;;
74102;SDS011;62853;46.166;3.640;2022-10-16T07:01:47;6.97;;;4.00;;
74102;SDS011;62853;46.166;3.640;2022-10-16T07:04:12;5.13;;;4.18;;
74102;SDS011;62853;46.166;3.640;2022-10-16T07:06:38;6.32;;;4.47;;
74102;SDS011;62853;46.166;3.640;2022-10-16T07:09:04;8.32;;;3.97;;
74102;SDS011;62853;46.166;3.640;2022-10-16T07:11:32;5.47;;;3.90;;
74102;SDS011;62853;46.166;3.640;2022-10-16T07:13:58;6.40;;;3.90;;
74102;SDS011;62853;46.166;3.640;2022-10-16T07:16:24;6.32;;;3.63;;
74102;SDS011;62853;46.166;3.640;2022-10-16T07:18:52;7.47;;;3.97;;
74102;SDS011;62853;46.166;3.640;2022-10-16T07:21:23;4.90;;;3.83;;
74102;SDS011;62853;46.166;3.640;2022-10-16T07:23:53;8.88;;;4.28;;
74102;SDS011;62853;46.166;3.640;2022-10-16T07:26:20;10.18;;;4.75;;
74102;SDS011;62853;46.166;3.640;2022-10-16T07:28:47;7.97;;;4.78;;
74102;SDS011;62853;46.166;3.640;2022-10-16T07:31:13;5.10;;;3.80;;
74102;SDS011;62853;46.166;3.640;2022-10-16T07:33:40;9.32;;;3.95;;
74102;SDS011;62853;46.166;3.640;2022-10-16T07:36:08;5.80;;;3.63;;
74102;SDS011;62853;46.166;3.640;2022-10-16T07:38:34;7.75;;;3.67;;
74102;SDS011;62853;46.166;3.640;2022-10-16T07:41:00;11.00;;;4.00;;
74102;SDS011;62853;46.166;3.640;2022-10-16T07:43:28;7.72;;;3.72;;
74102;SDS011;62853;46.166;3.640;2022-10-16T07:45:54;6.35;;;3.53;;
74102;SDS011;62853;46.166;3.640;2022-10-16T07:48:20;6.35;;;3.50;;
74102;SDS011;62853;46.166;3.640;2022-10-16T07:50:46;6.65;;;3.38;;
74102;SDS011;62853;46.166;3.640;2022-10-16T07:53:12;7.95;;;3.70;;
74102;SDS011;62853;46.166;3.640;2022-10-16T07:55:37;6.95;;;3.55;;
74102;SDS011;62853;46.166;3.640;2022-10-16T07:58:03;7.10;;;3.50;;
74102;SDS011;62853;46.166;3.640;2022-10-16T08:00:29;5.40;;;3.22;;
74102;SDS011;62853;46.166;3.640;2022-10-16T08:02:56;7.57;;;2.92;;
74102;SDS011;62853;46.166;3.640;2022-10-16T08:05:25;5.97;;;2.88;;
74102;SDS011;62853;46.166;3.640;2022-10-16T08:07:52;9.10;;;3.25;;
74102;SDS011;62853;46.166;3.640;2022-10-16T08:10:18;6.05;;;2.40;;
74102;SDS011;62853;46.166;3.640;2022-10-16T08:12:44;5.47;;;2.63;;
74102;SDS011;62853;46.166;3.640;2022-10-16T08:15:10;8.75;;;4.25;;
74102;SDS011;62853;46.166;3.640;2022-10-16T08:17:35;11.20;;;2.90;;
74102;SDS011;62853;46.166;3.640;2022-10-16T08:20:01;6.05;;;2.53;;
74102;SDS011;62853;46.166;3.640;2022-10-16T08:22:27;5.35;;;2.72;;
74102;SDS011;62853;46.166;3.640;2022-10-16T08:24:52;6.75;;;2.75;;
74102;SDS011;62853;46.166;3.640;2022-10-16T08:27:18;3.55;;;2.38;;
74102;SDS011;62853;46.166;3.640;2022-10-16T08:29:43;5.20;;;2.30;;
74102;SDS011;62853;46.166;3.640;2022-10-16T08:32:08;6.13;;;2.50;;
74102;SDS011;62853;46.166;3.640;2022-10-16T08:34:34;7.10;;;2.65;;
74102;SDS011;62853;46.166;3.640;2022-10-16T08:36:59;6.80;;;2.10;;
74102;SDS011;62853;46.166;3.640;2022-10-16T08:39:24;4.75;;;2.20;;
74102;SDS011;62853;46.166;3.640;2022-10-16T08:47:02;5.88;;;2.10;;
74102;SDS011;62853;46.166;3.640;2022-10-16T08:49:33;4.20;;;2.10;;
74102;SDS011;62853;46.166;3.640;2022-10-16T08:51:59;4.25;;;1.80;;
74102;SDS011;62853;46.166;3.640;2022-10-16T08:56:55;3.78;;;1.70;;
74102;SDS011;62853;46.166;3.640;2022-10-16T08:59:21;4.78;;;1.77;;
74102;SDS011;62853;46.166;3.640;2022-10-16T09:01:47;4.82;;;1.85;;
74102;SDS011;62853;46.166;3.640;2022-10-16T09:07:04;4.85;;;1.70;;
74102;SDS011;62853;46.166;3.640;2022-10-16T09:25:30;4.55;;;1.55;;
74102;SDS011;62853;46.166;3.640;2022-10-16T09:27:56;5.30;;;1.50;;
74102;SDS011;62853;46.166;3.640;2022-10-16T09:30:21;7.00;;;1.40;;
74102;SDS011;62853;46.166;3.640;2022-10-16T09:32:51;5.38;;;1.67;;
74102;SDS011;62853;46.166;3.640;2022-10-16T09:35:31;5.32;;;1.60;;
74102;SDS011;62853;46.166;3.640;2022-10-16T09:38:01;5.72;;;1.85;;
74102;SDS011;62853;46.166;3.640;2022-10-16T09:40:28;8.25;;;1.75;;
74102;SDS011;62853;46.166;3.640;2022-10-16T09:46:30;5.15;;;1.75;;
74102;SDS011;62853;46.166;3.640;2022-10-16T09:49:02;6.40;;;1.80;;
74102;SDS011;62853;46.166;3.640;2022-10-16T09:51:33;6.40;;;1.70;;
74102;SDS011;62853;46.166;3.640;2022-10-16T09:54:01;4.85;;;1.50;;
74102;SDS011;62853;46.166;3.640;2022-10-16T09:56:38;3.38;;;1.50;;
74102;SDS011;62853;46.166;3.640;2022-10-16T09:59:11;5.63;;;1.70;;
74102;SDS011;62853;46.166;3.640;2022-10-16T10:01:43;5.57;;;1.70;;
74102;SDS011;62853;46.166;3.640;2022-10-16T10:04:11;4.82;;;1.70;;
74102;SDS011;62853;46.166;3.640;2022-10-16T10:06:40;7.72;;;1.67;;
74102;SDS011;62853;46.166;3.640;2022-10-16T10:14:16;8.07;;;1.85;;
74102;SDS011;62853;46.166;3.640;2022-10-16T10:16:45;8.73;;;2.05;;
74102;SDS011;62853;46.166;3.640;2022-10-16T10:19:14;7.80;;;1.75;;
74102;SDS011;62853;46.166;3.640;2022-10-16T10:21:45;6.57;;;1.70;;
74102;SDS011;62853;46.166;3.640;2022-10-16T10:24:14;7.80;;;1.60;;
74102;SDS011;62853;46.166;3.640;2022-10-16T10:26:57;4.80;;;1.65;;
74102;SDS011;62853;46.166;3.640;2022-10-16T10:34:59;4.93;;;1.50;;
74102;SDS011;62853;46.166;3.640;2022-10-16T10:37:40;10.75;;;1.80;;
74102;SDS011;62853;46.166;3.640;2022-10-16T10:45:55;7.97;;;1.95;;
74102;SDS011;62853;46.166;3.640;2022-10-16T10:51:01;5.65;;;1.50;;
74102;SDS011;62853;46.166;3.640;2022-10-16T10:53:48;7.78;;;1.60;;
74102;SDS011;62853;46.166;3.640;2022-10-16T11:02:01;7.28;;;1.55;;
74102;SDS011;62853;46.166;3.640;2022-10-16T11:04:59;5.93;;;1.42;;
74102;SDS011;62853;46.166;3.640;2022-10-16T11:07:30;8.68;;;1.50;;
74102;SDS011;62853;46.166;3.640;2022-10-16T11:10:03;12.05;;;1.85;;
74102;SDS011;62853;46.166;3.640;2022-10-16T11:12:39;8.38;;;2.22;;
74102;SDS011;62853;46.166;3.640;2022-10-16T11:18:02;9.13;;;1.50;;
74102;SDS011;62853;46.166;3.640;2022-10-16T11:20:42;4.97;;;1.52;;
74102;SDS011;62853;46.166;3.640;2022-10-16T11:25:51;5.95;;;1.77;;
74102;SDS011;62853;46.166;3.640;2022-10-16T11:33:55;6.40;;;1.73;;
74102;SDS011;62853;46.166;3.640;2022-10-16T11:36:33;7.50;;;1.45;;
74102;SDS011;62853;46.166;3.640;2022-10-16T11:39:16;6.15;;;1.75;;
74102;SDS011;62853;46.166;3.640;2022-10-16T11:53:00;7.82;;;1.52;;
74102;SDS011;62853;46.166;3.640;2022-10-16T11:55:36;6.95;;;1.40;;
74102;SDS011;62853;46.166;3.640;2022-10-16T11:58:22;6.10;;;1.60;;
74102;SDS011;62853;46.166;3.640;2022-10-16T12:09:21;7.90;;;1.80;;
74102;SDS011;62853;46.166;3.640;2022-10-16T12:11:50;9.82;;;1.52;;
74102;SDS011;62853;46.166;3.640;2022-10-16T12:16:51;11.70;;;1.63;;
74102;SDS011;62853;46.166;3.640;2022-10-16T12:19:18;4.07;;;1.35;;
74102;SDS011;62853;46.166;3.640;2022-10-16T12:21:45;6.30;;;1.48;;
74102;SDS011;62853;46.166;3.640;2022-10-16T12:24:20;6.50;;;1.35;;
74102;SDS011;62853;46.166;3.640;2022-10-16T12:26:46;5.15;;;1.30;;
74102;SDS011;62853;46.166;3.640;2022-10-16T12:31:59;7.85;;;1.23;;
74102;SDS011;62853;46.166;3.640;2022-10-16T12:34:30;8.93;;;1.58;;
74102;SDS011;62853;46.166;3.640;2022-10-16T12:37:19;4.88;;;1.30;;
74102;SDS011;62853;46.166;3.640;2022-10-16T12:39:47;5.70;;;1.80;;
74102;SDS011;62853;46.166;3.640;2022-10-16T12:42:30;7.72;;;1.52;;
74102;SDS011;62853;46.166;3.640;2022-10-16T12:44:58;4.70;;;1.05;;
74102;SDS011;62853;46.166;3.640;2022-10-16T12:49:58;5.15;;;0.85;;
74102;SDS011;62853;46.166;3.640;2022-10-16T12:54:58;7.50;;;1.52;;
74102;SDS011;62853;46.166;3.640;2022-10-16T13:05:30;4.80;;;0.90;;
74102;SDS011;62853;46.166;3.640;2022-10-16T13:08:04;4.28;;;1.15;;
74102;SDS011;62853;46.166;3.640;2022-10-16T13:22:02;5.72;;;1.52;;
74102;SDS011;62853;46.166;3.640;2022-10-16T13:27:15;4.43;;;1.25;;
74102;SDS011;62853;46.166;3.640;2022-10-16T13:30:00;6.93;;;1.17;;
74102;SDS011;62853;46.166;3.640;2022-10-16T13:32:33;6.10;;;1.30;;
74102;SDS011;62853;46.166;3.640;2022-10-16T13:34:59;4.68;;;1.23;;
74102;SDS011;62853;46.166;3.640;2022-10-16T13:37:25;7.63;;;1.10;;
74102;SDS011;62853;46.166;3.640;2022-10-16T13:40:01;6.65;;;1.38;;
74102;SDS011;62853;46.166;3.640;2022-10-16T13:42:37;6.65;;;1.40;;
74102;SDS011;62853;46.166;3.640;2022-10-16T13:45:02;3.85;;;1.10;;
74102;SDS011;62853;46.166;3.640;2022-10-16T13:47:29;2.95;;;1.10;;
74102;SDS011;62853;46.166;3.640;2022-10-16T13:50:04;5.88;;;0.95;;
74102;SDS011;62853;46.166;3.640;2022-10-16T13:52:40;5.03;;;1.15;;
74102;SDS011;62853;46.166;3.640;2022-10-16T13:55:12;6.55;;;1.50;;
74102;SDS011;62853;46.166;3.640;2022-10-16T13:57:43;6.68;;;1.17;;
74102;SDS011;62853;46.166;3.640;2022-10-16T14:00:22;4.55;;;1.08;;
74102;SDS011;62853;46.166;3.640;2022-10-16T14:02:55;4.38;;;1.08;;
74102;SDS011;62853;46.166;3.640;2022-10-16T14:05:25;3.42;;;1.30;;
74102;SDS011;62853;46.166;3.640;2022-10-16T14:07:51;4.63;;;1.20;;
74102;SDS011;62853;46.166;3.640;2022-10-16T14:10:26;4.88;;;1.25;;
74102;SDS011;62853;46.166;3.640;2022-10-16T14:13:17;5.70;;;1.10;;
74102;SDS011;62853;46.166;3.640;2022-10-16T14:15:45;3.90;;;1.17;;
74102;SDS011;62853;46.166;3.640;2022-10-16T14:18:24;6.63;;;1.38;;
74102;SDS011;62853;46.166;3.640;2022-10-16T14:20:51;5.28;;;1.10;;
74102;SDS011;62853;46.166;3.640;2022-10-16T14:23:21;4.25;;;1.00;;
74102;SDS011;62853;46.166;3.640;2022-10-16T14:25:51;3.38;;;0.98;;
74102;SDS011;62853;46.166;3.640;2022-10-16T14:28:20;3.88;;;1.15;;
74102;SDS011;62853;46.166;3.640;2022-10-16T14:30:57;3.83;;;1.15;;
74102;SDS011;62853;46.166;3.640;2022-10-16T14:38:37;4.25;;;1.50;;
74102;SDS011;62853;46.166;3.640;2022-10-16T14:41:05;5.13;;;1.65;;
74102;SDS011;62853;46.166;3.640;2022-10-16T14:43:32;5.97;;;1.70;;
74102;SDS011;62853;46.166;3.640;2022-10-16T14:45:59;4.32;;;1.58;;
74102;SDS011;62853;46.166;3.640;2022-10-16T14:48:27;6.38;;;1.58;;
74102;SDS011;62853;46.166;3.640;2022-10-16T14:50:53;4.95;;;1.80;;
74102;SDS011;62853;46.166;3.640;2022-10-16T14:53:19;4.95;;;2.10;;
74102;SDS011;62853;46.166;3.640;2022-10-16T14:55:44;4.95;;;2.00;;
74102;SDS011;62853;46.166;3.640;2022-10-16T14:58:17;4.75;;;2.42;;
74102;SDS011;62853;46.166;3.640;2022-10-16T15:00:45;8.77;;;4.93;;
74102;SDS011;62853;46.166;3.640;2022-10-16T15:03:11;8.52;;;3.92;;
74102;SDS011;62853;46.166;3.640;2022-10-16T15:05:37;4.85;;;2.00;;
74102;SDS011;62853;46.166;3.640;2022-10-16T15:08:03;3.30;;;1.80;;
74102;SDS011;62853;46.166;3.640;2022-10-16T15:10:29;5.18;;;1.63;;
74102;SDS011;62853;46.166;3.640;2022-10-16T15:12:57;6.20;;;1.40;;
74102;SDS011;62853;46.166;3.640;2022-10-16T15:15:36;4.70;;;1.30;;
74102;SDS011;62853;46.166;3.640;2022-10-16T15:18:05;3.13;;;1.40;;
74102;SDS011;62853;46.166;3.640;2022-10-16T15:20:32;6.55;;;1.60;;
74102;SDS011;62853;46.166;3.640;2022-10-16T15:23:03;4.45;;;1.08;;
74102;SDS011;62853;46.166;3.640;2022-10-16T15:25:47;3.53;;;1.13;;
74102;SDS011;62853;46.166;3.640;2022-10-16T15:28:15;3.42;;;1.27;;
74102;SDS011;62853;46.166;3.640;2022-10-16T15:30:41;5.20;;;1.27;;
74102;SDS011;62853;46.166;3.640;2022-10-16T15:33:11;3.72;;;1.20;;
74102;SDS011;62853;46.166;3.640;2022-10-16T15:35:39;3.47;;;1.08;;
74102;SDS011;62853;46.166;3.640;2022-10-16T15:38:04;3.35;;;1.00;;
74102;SDS011;62853;46.166;3.640;2022-10-16T15:40:30;2.63;;;1.02;;
74102;SDS011;62853;46.166;3.640;2022-10-16T15:42:55;4.97;;;1.10;;
74102;SDS011;62853;46.166;3.640;2022-10-16T15:45:20;3.35;;;0.90;;
74102;SDS011;62853;46.166;3.640;2022-10-16T15:47:46;2.97;;;1.00;;
74102;SDS011;62853;46.166;3.640;2022-10-16T15:50:12;3.65;;;1.10;;
74102;SDS011;62853;46.166;3.640;2022-10-16T15:52:39;5.35;;;1.20;;
74102;SDS011;62853;46.166;3.640;2022-10-16T15:55:08;5.75;;;1.00;;
74102;SDS011;62853;46.166;3.640;2022-10-16T15:57:36;3.63;;;1.30;;
74102;SDS011;62853;46.166;3.640;2022-10-16T16:00:07;4.45;;;0.90;;
74102;SDS011;62853;46.166;3.640;2022-10-16T16:02:34;5.57;;;1.30;;
74102;SDS011;62853;46.166;3.640;2022-10-16T16:05:00;4.72;;;1.75;;
74102;SDS011;62853;46.166;3.640;2022-10-16T16:07:26;3.40;;;1.60;;
74102;SDS011;62853;46.166;3.640;2022-10-16T16:09:52;5.47;;;1.40;;
74102;SDS011;62853;46.166;3.640;2022-10-16T16:12:18;4.95;;;1.30;;
74102;SDS011;62853;46.166;3.640;2022-10-16T16:14:43;8.02;;;1.63;;
74102;SDS011;62853;46.166;3.640;2022-10-16T16:17:11;3.40;;;1.33;;
74102;SDS011;62853;46.166;3.640;2022-10-16T16:19:36;4.90;;;1.40;;
74102;SDS011;62853;46.166;3.640;2022-10-16T16:22:02;5.63;;;1.77;;
74102;SDS011;62853;46.166;3.640;2022-10-16T16:24:27;4.28;;;1.58;;
74102;SDS011;62853;46.166;3.640;2022-10-16T16:26:52;5.07;;;1.50;;
74102;SDS011;62853;46.166;3.640;2022-10-16T16:29:18;3.90;;;1.42;;
74102;SDS011;62853;46.166;3.640;2022-10-16T16:31:43;3.72;;;1.45;;
74102;SDS011;62853;46.166;3.640;2022-10-16T16:34:09;3.53;;;1.80;;
74102;SDS011;62853;46.166;3.640;2022-10-16T16:36:34;5.78;;;2.50;;
74102;SDS011;62853;46.166;3.640;2022-10-16T16:39:00;5.85;;;2.47;;
74102;SDS011;62853;46.166;3.640;2022-10-16T16:41:27;8.32;;;2.45;;
74102;SDS011;62853;46.166;3.640;2022-10-16T16:43:54;7.38;;;2.72;;
74102;SDS011;62853;46.166;3.640;2022-10-16T16:46:25;4.45;;;2.35;;
74102;SDS011;62853;46.166;3.640;2022-10-16T16:48:51;5.00;;;2.13;;
74102;SDS011;62853;46.166;3.640;2022-10-16T16:51:18;6.13;;;2.60;;
74102;SDS011;62853;46.166;3.640;2022-10-16T16:53:48;9.10;;;2.95;;
74102;SDS011;62853;46.166;3.640;2022-10-16T16:56:15;5.25;;;3.90;;
74102;SDS011;62853;46.166;3.640;2022-10-16T16:58:41;6.90;;;3.65;;
74102;SDS011;62853;46.166;3.640;2022-10-16T17:01:09;7.57;;;3.92;;
74102;SDS011;62853;46.166;3.640;2022-10-16T17:03:35;7.57;;;4.03;;
74102;SDS011;62853;46.166;3.640;2022-10-16T17:06:05;6.00;;;3.90;;
74102;SDS011;62853;46.166;3.640;2022-10-16T17:08:32;7.57;;;4.10;;
74102;SDS011;62853;46.166;3.640;2022-10-16T17:10:59;7.28;;;4.15;;
74102;SDS011;62853;46.166;3.640;2022-10-16T17:13:25;5.22;;;3.50;;
74102;SDS011;62853;46.166;3.640;2022-10-16T17:15:52;5.88;;;3.45;;
74102;SDS011;62853;46.166;3.640;2022-10-16T17:18:18;5.65;;;3.50;;
74102;SDS011;62853;46.166;3.640;2022-10-16T17:20:45;6.90;;;3.60;;